sensor_id;sensor_type;location;lat;lon;timestamp;P1;durP1;ratioP1;P2;durP2;ratioP2
35578;SDS011;21687;48.900;9.188;2023-07-02T00:01:52;8.80;;;4.80;;
35578;SDS011;21687;48.900;9.188;2023-07-02T00:04:18;5.70;;;5.00;;
35578;SDS011;21687;48.900;9.188;2023-07-02T00:06:46;5.03;;;4.23;;
35578;SDS011;21687;48.900;9.188;2023-07-02T00:09:13;5.10;;;4.33;;
35578;SDS011;21687;48.900;9.188;2023-07-02T00:11:41;5.13;;;4.63;;
35578;SDS011;21687;48.900;9.188;2023-07-02T00:14:11;5.20;;;4.80;;
35578;SDS011;21687;48.900;9.188;2023-07-02T00:16:39;5.17;;;4.40;;
35578;SDS011;21687;48.900;9.188;2023-07-02T00:19:11;5.43;;;4.93;;
35578;SDS011;21687;48.900;9.188;2023-07-02T00:21:38;5.57;;;4.77;;
35578;SDS011;21687;48.900;9.188;2023-07-02T00:24:06;5.20;;;4.70;;
35578;SDS011;21687;48.900;9.188;2023-07-02T00:26:34;7.20;;;4.83;;
35578;SDS011;21687;48.900;9.188;2023-07-02T00:29:03;5.63;;;5.00;;
35578;SDS011;21687;48.900;9.188;2023-07-02T00:31:31;4.90;;;4.53;;
35578;SDS011;21687;48.900;9.188;2023-07-02T00:33:58;5.33;;;4.80;;
35578;SDS011;21687;48.900;9.188;2023-07-02T00:36:28;5.30;;;4.90;;
35578;SDS011;21687;48.900;9.188;2023-07-02T00:38:55;5.13;;;4.63;;
35578;SDS011;21687;48.900;9.188;2023-07-02T00:41:22;5.70;;;5.17;;
35578;SDS011;21687;48.900;9.188;2023-07-02T00:43:50;5.90;;;5.30;;
35578;SDS011;21687;48.900;9.188;2023-07-02T00:46:20;6.10;;;5.33;;
35578;SDS011;21687;48.900;9.188;2023-07-02T00:48:49;6.27;;;4.70;;
35578;SDS011;21687;48.900;9.188;2023-07-02T00:51:19;6.33;;;5.17;;
35578;SDS011;21687;48.900;9.188;2023-07-02T00:53:48;5.10;;;4.70;;
35578;SDS011;21687;48.900;9.188;2023-07-02T00:56:17;5.70;;;4.90;;
35578;SDS011;21687;48.900;9.188;2023-07-02T00:58:47;5.63;;;5.13;;
35578;SDS011;21687;48.900;9.188;2023-07-02T01:01:22;8.43;;;4.60;;
35578;SDS011;21687;48.900;9.188;2023-07-02T01:04:01;7.20;;;5.00;;
35578;SDS011;21687;48.900;9.188;2023-07-02T01:06:31;5.63;;;5.13;;
35578;SDS011;21687;48.900;9.188;2023-07-02T01:08:59;7.07;;;5.27;;
35578;SDS011;21687;48.900;9.188;2023-07-02T01:11:42;5.60;;;5.10;;
35578;SDS011;21687;48.900;9.188;2023-07-02T01:17:15;5.00;;;4.50;;
35578;SDS011;21687;48.900;9.188;2023-07-02T01:19:48;6.17;;;5.07;;
35578;SDS011;21687;48.900;9.188;2023-07-02T01:22:20;7.13;;;5.43;;
35578;SDS011;21687;48.900;9.188;2023-07-02T01:24:49;7.70;;;4.77;;
35578;SDS011;21687;48.900;9.188;2023-07-02T01:27:16;6.57;;;5.30;;
35578;SDS011;21687;48.900;9.188;2023-07-02T01:29:43;6.73;;;5.30;;
35578;SDS011;21687;48.900;9.188;2023-07-02T01:32:15;5.17;;;4.67;;
35578;SDS011;21687;48.900;9.188;2023-07-02T01:34:41;5.13;;;4.73;;
35578;SDS011;21687;48.900;9.188;2023-07-02T01:37:09;5.33;;;4.90;;
35578;SDS011;21687;48.900;9.188;2023-07-02T01:39:35;7.87;;;5.30;;
35578;SDS011;21687;48.900;9.188;2023-07-02T01:42:11;6.50;;;5.27;;
35578;SDS011;21687;48.900;9.188;2023-07-02T01:44:46;5.37;;;4.87;;
35578;SDS011;21687;48.900;9.188;2023-07-02T01:47:13;5.20;;;4.80;;
35578;SDS011;21687;48.900;9.188;2023-07-02T01:49:41;5.63;;;4.97;;
35578;SDS011;21687;48.900;9.188;2023-07-02T01:52:08;5.50;;;5.00;;
35578;SDS011;21687;48.900;9.188;2023-07-02T01:54:34;4.53;;;4.10;;
35578;SDS011;21687;48.900;9.188;2023-07-02T01:57:01;7.87;;;4.57;;
35578;SDS011;21687;48.900;9.188;2023-07-02T01:59:29;5.70;;;4.40;;
35578;SDS011;21687;48.900;9.188;2023-07-02T02:01:55;4.67;;;4.27;;
35578;SDS011;21687;48.900;9.188;2023-07-02T02:04:21;4.70;;;4.23;;
35578;SDS011;21687;48.900;9.188;2023-07-02T02:06:48;4.80;;;4.37;;
35578;SDS011;21687;48.900;9.188;2023-07-02T02:09:15;4.63;;;4.10;;
35578;SDS011;21687;48.900;9.188;2023-07-02T02:11:43;5.40;;;4.90;;
35578;SDS011;21687;48.900;9.188;2023-07-02T02:14:15;5.73;;;4.47;;
35578;SDS011;21687;48.900;9.188;2023-07-02T02:16:42;4.40;;;4.00;;
35578;SDS011;21687;48.900;9.188;2023-07-02T02:19:12;4.53;;;4.13;;
35578;SDS011;21687;48.900;9.188;2023-07-02T02:21:40;4.83;;;4.40;;
35578;SDS011;21687;48.900;9.188;2023-07-02T02:24:07;5.10;;;4.20;;
35578;SDS011;21687;48.900;9.188;2023-07-02T02:26:33;5.13;;;3.97;;
35578;SDS011;21687;48.900;9.188;2023-07-02T02:29:00;4.70;;;4.20;;
35578;SDS011;21687;48.900;9.188;2023-07-02T02:31:26;4.87;;;4.40;;
35578;SDS011;21687;48.900;9.188;2023-07-02T02:33:53;4.50;;;4.10;;
35578;SDS011;21687;48.900;9.188;2023-07-02T02:36:20;6.50;;;4.23;;
35578;SDS011;21687;48.900;9.188;2023-07-02T02:38:46;4.30;;;3.90;;
35578;SDS011;21687;48.900;9.188;2023-07-02T02:41:12;4.53;;;4.00;;
35578;SDS011;21687;48.900;9.188;2023-07-02T02:43:42;6.20;;;3.80;;
35578;SDS011;21687;48.900;9.188;2023-07-02T02:46:10;3.90;;;3.40;;
35578;SDS011;21687;48.900;9.188;2023-07-02T02:48:37;5.70;;;3.73;;
35578;SDS011;21687;48.900;9.188;2023-07-02T02:51:03;4.43;;;4.03;;
35578;SDS011;21687;48.900;9.188;2023-07-02T02:53:29;4.90;;;3.97;;
35578;SDS011;21687;48.900;9.188;2023-07-02T02:55:56;4.60;;;3.60;;
35578;SDS011;21687;48.900;9.188;2023-07-02T02:58:22;5.17;;;4.67;;
35578;SDS011;21687;48.900;9.188;2023-07-02T03:00:48;4.57;;;3.97;;
35578;SDS011;21687;48.900;9.188;2023-07-02T03:03:16;4.27;;;3.87;;
35578;SDS011;21687;48.900;9.188;2023-07-02T03:05:42;4.30;;;3.90;;
35578;SDS011;21687;48.900;9.188;2023-07-02T03:08:10;8.87;;;4.20;;
35578;SDS011;21687;48.900;9.188;2023-07-02T03:10:36;4.47;;;4.07;;
35578;SDS011;21687;48.900;9.188;2023-07-02T03:13:03;4.17;;;3.77;;
35578;SDS011;21687;48.900;9.188;2023-07-02T03:15:29;6.27;;;4.70;;
35578;SDS011;21687;48.900;9.188;2023-07-02T03:17:56;6.27;;;4.70;;
35578;SDS011;21687;48.900;9.188;2023-07-02T03:20:22;5.03;;;4.50;;
35578;SDS011;21687;48.900;9.188;2023-07-02T03:22:49;6.73;;;5.20;;
35578;SDS011;21687;48.900;9.188;2023-07-02T03:25:15;7.17;;;5.00;;
35578;SDS011;21687;48.900;9.188;2023-07-02T03:27:42;7.17;;;4.97;;
35578;SDS011;21687;48.900;9.188;2023-07-02T03:30:08;7.43;;;5.10;;
35578;SDS011;21687;48.900;9.188;2023-07-02T03:32:35;10.07;;;5.33;;
35578;SDS011;21687;48.900;9.188;2023-07-02T03:35:01;10.10;;;5.70;;
35578;SDS011;21687;48.900;9.188;2023-07-02T03:37:28;9.03;;;5.03;;
35578;SDS011;21687;48.900;9.188;2023-07-02T03:39:54;9.20;;;5.67;;
35578;SDS011;21687;48.900;9.188;2023-07-02T03:42:20;9.27;;;4.93;;
35578;SDS011;21687;48.900;9.188;2023-07-02T03:44:46;7.43;;;5.10;;
35578;SDS011;21687;48.900;9.188;2023-07-02T03:47:13;6.90;;;5.53;;
35578;SDS011;21687;48.900;9.188;2023-07-02T03:49:41;7.40;;;5.00;;
35578;SDS011;21687;48.900;9.188;2023-07-02T03:52:08;9.03;;;4.90;;
35578;SDS011;21687;48.900;9.188;2023-07-02T03:54:34;9.83;;;5.63;;
35578;SDS011;21687;48.900;9.188;2023-07-02T03:57:01;8.13;;;5.23;;
35578;SDS011;21687;48.900;9.188;2023-07-02T03:59:27;10.57;;;5.53;;
35578;SDS011;21687;48.900;9.188;2023-07-02T04:01:53;8.70;;;5.67;;
35578;SDS011;21687;48.900;9.188;2023-07-02T04:04:19;9.17;;;4.90;;
35578;SDS011;21687;48.900;9.188;2023-07-02T04:06:46;7.33;;;5.23;;
35578;SDS011;21687;48.900;9.188;2023-07-02T04:09:12;8.53;;;5.23;;
35578;SDS011;21687;48.900;9.188;2023-07-02T04:11:38;9.60;;;6.17;;
35578;SDS011;21687;48.900;9.188;2023-07-02T04:14:05;9.40;;;5.80;;
35578;SDS011;21687;48.900;9.188;2023-07-02T04:16:31;11.73;;;5.90;;
35578;SDS011;21687;48.900;9.188;2023-07-02T04:18:57;9.77;;;5.50;;
35578;SDS011;21687;48.900;9.188;2023-07-02T04:21:23;8.70;;;5.53;;
35578;SDS011;21687;48.900;9.188;2023-07-02T04:23:50;8.83;;;5.87;;
35578;SDS011;21687;48.900;9.188;2023-07-02T04:26:16;8.63;;;4.97;;
35578;SDS011;21687;48.900;9.188;2023-07-02T04:28:43;10.97;;;5.73;;
35578;SDS011;21687;48.900;9.188;2023-07-02T04:31:09;8.37;;;5.47;;
35578;SDS011;21687;48.900;9.188;2023-07-02T04:33:36;11.10;;;5.20;;
35578;SDS011;21687;48.900;9.188;2023-07-02T04:36:03;9.00;;;4.97;;
35578;SDS011;21687;48.900;9.188;2023-07-02T04:38:29;6.93;;;5.00;;
35578;SDS011;21687;48.900;9.188;2023-07-02T04:40:56;8.00;;;4.97;;
35578;SDS011;21687;48.900;9.188;2023-07-02T04:43:33;6.07;;;4.63;;
35578;SDS011;21687;48.900;9.188;2023-07-02T04:46:00;7.50;;;4.93;;
35578;SDS011;21687;48.900;9.188;2023-07-02T04:48:27;7.37;;;4.93;;
35578;SDS011;21687;48.900;9.188;2023-07-02T04:50:53;8.17;;;5.13;;
35578;SDS011;21687;48.900;9.188;2023-07-02T04:53:20;4.97;;;3.90;;
35578;SDS011;21687;48.900;9.188;2023-07-02T04:55:46;7.53;;;4.03;;
35578;SDS011;21687;48.900;9.188;2023-07-02T04:58:12;4.97;;;3.90;;
35578;SDS011;21687;48.900;9.188;2023-07-02T05:00:38;5.80;;;4.00;;
35578;SDS011;21687;48.900;9.188;2023-07-02T05:03:05;5.27;;;3.70;;
35578;SDS011;21687;48.900;9.188;2023-07-02T05:05:31;6.77;;;3.80;;
35578;SDS011;21687;48.900;9.188;2023-07-02T05:07:58;8.93;;;3.50;;
35578;SDS011;21687;48.900;9.188;2023-07-02T05:10:24;5.30;;;3.80;;
35578;SDS011;21687;48.900;9.188;2023-07-02T05:12:50;4.77;;;3.37;;
35578;SDS011;21687;48.900;9.188;2023-07-02T05:15:16;6.33;;;3.70;;
35578;SDS011;21687;48.900;9.188;2023-07-02T05:17:44;6.20;;;3.57;;
35578;SDS011;21687;48.900;9.188;2023-07-02T05:20:10;7.13;;;3.50;;
35578;SDS011;21687;48.900;9.188;2023-07-02T05:22:36;5.57;;;3.40;;
35578;SDS011;21687;48.900;9.188;2023-07-02T05:25:03;9.27;;;4.40;;
35578;SDS011;21687;48.900;9.188;2023-07-02T05:27:29;6.90;;;3.87;;
35578;SDS011;21687;48.900;9.188;2023-07-02T05:29:56;5.07;;;3.07;;
35578;SDS011;21687;48.900;9.188;2023-07-02T05:32:22;6.37;;;3.13;;
35578;SDS011;21687;48.900;9.188;2023-07-02T05:34:48;6.03;;;3.60;;
35578;SDS011;21687;48.900;9.188;2023-07-02T05:37:15;7.47;;;4.23;;
35578;SDS011;21687;48.900;9.188;2023-07-02T05:39:41;8.43;;;4.23;;
35578;SDS011;21687;48.900;9.188;2023-07-02T05:42:08;6.77;;;4.43;;
35578;SDS011;21687;48.900;9.188;2023-07-02T05:44:34;5.93;;;4.30;;
35578;SDS011;21687;48.900;9.188;2023-07-02T05:47:00;9.17;;;4.97;;
35578;SDS011;21687;48.900;9.188;2023-07-02T05:49:26;7.67;;;4.30;;
35578;SDS011;21687;48.900;9.188;2023-07-02T05:51:53;8.00;;;4.87;;
35578;SDS011;21687;48.900;9.188;2023-07-02T05:54:19;7.50;;;4.37;;
35578;SDS011;21687;48.900;9.188;2023-07-02T05:56:45;7.37;;;4.20;;
35578;SDS011;21687;48.900;9.188;2023-07-02T05:59:11;6.77;;;4.33;;
35578;SDS011;21687;48.900;9.188;2023-07-02T06:01:43;9.50;;;5.47;;
35578;SDS011;21687;48.900;9.188;2023-07-02T06:04:09;11.77;;;4.87;;
35578;SDS011;21687;48.900;9.188;2023-07-02T06:06:35;9.47;;;5.13;;
35578;SDS011;21687;48.900;9.188;2023-07-02T06:09:01;8.47;;;5.33;;
35578;SDS011;21687;48.900;9.188;2023-07-02T06:11:29;7.70;;;5.33;;
35578;SDS011;21687;48.900;9.188;2023-07-02T06:13:55;9.70;;;5.67;;
35578;SDS011;21687;48.900;9.188;2023-07-02T06:16:22;9.13;;;5.03;;
35578;SDS011;21687;48.900;9.188;2023-07-02T06:18:48;7.60;;;4.90;;
35578;SDS011;21687;48.900;9.188;2023-07-02T06:21:14;8.33;;;4.43;;
35578;SDS011;21687;48.900;9.188;2023-07-02T06:23:43;9.70;;;4.83;;
35578;SDS011;21687;48.900;9.188;2023-07-02T06:26:10;9.40;;;5.33;;
35578;SDS011;21687;48.900;9.188;2023-07-02T06:28:37;9.13;;;4.90;;
35578;SDS011;21687;48.900;9.188;2023-07-02T06:31:04;8.30;;;4.90;;
35578;SDS011;21687;48.900;9.188;2023-07-02T06:33:30;7.63;;;4.93;;
35578;SDS011;21687;48.900;9.188;2023-07-02T06:35:57;12.13;;;5.57;;
35578;SDS011;21687;48.900;9.188;2023-07-02T06:38:23;7.03;;;4.83;;
35578;SDS011;21687;48.900;9.188;2023-07-02T06:40:49;12.13;;;5.47;;
35578;SDS011;21687;48.900;9.188;2023-07-02T06:43:16;7.67;;;4.87;;
35578;SDS011;21687;48.900;9.188;2023-07-02T06:45:42;10.57;;;5.57;;
35578;SDS011;21687;48.900;9.188;2023-07-02T06:48:08;11.97;;;5.87;;
35578;SDS011;21687;48.900;9.188;2023-07-02T06:50:35;12.10;;;5.37;;
35578;SDS011;21687;48.900;9.188;2023-07-02T06:53:01;8.67;;;5.20;;
35578;SDS011;21687;48.900;9.188;2023-07-02T06:55:27;8.83;;;5.23;;
35578;SDS011;21687;48.900;9.188;2023-07-02T06:57:54;8.53;;;6.07;;
35578;SDS011;21687;48.900;9.188;2023-07-02T07:00:21;9.97;;;5.73;;
35578;SDS011;21687;48.900;9.188;2023-07-02T07:02:47;10.87;;;5.27;;
35578;SDS011;21687;48.900;9.188;2023-07-02T07:05:13;11.93;;;5.80;;
35578;SDS011;21687;48.900;9.188;2023-07-02T07:07:40;9.07;;;5.60;;
35578;SDS011;21687;48.900;9.188;2023-07-02T07:10:07;9.20;;;5.40;;
35578;SDS011;21687;48.900;9.188;2023-07-02T07:12:34;8.87;;;5.90;;
35578;SDS011;21687;48.900;9.188;2023-07-02T07:15:00;9.03;;;5.33;;
35578;SDS011;21687;48.900;9.188;2023-07-02T07:17:27;13.33;;;6.07;;
35578;SDS011;21687;48.900;9.188;2023-07-02T07:19:54;11.43;;;5.47;;
35578;SDS011;21687;48.900;9.188;2023-07-02T07:22:20;13.20;;;6.97;;
35578;SDS011;21687;48.900;9.188;2023-07-02T07:24:46;13.43;;;6.37;;
35578;SDS011;21687;48.900;9.188;2023-07-02T07:27:13;18.03;;;8.17;;
35578;SDS011;21687;48.900;9.188;2023-07-02T07:29:39;13.10;;;7.20;;
35578;SDS011;21687;48.900;9.188;2023-07-02T07:32:06;10.80;;;6.53;;
35578;SDS011;21687;48.900;9.188;2023-07-02T07:34:32;13.30;;;7.30;;
35578;SDS011;21687;48.900;9.188;2023-07-02T07:36:58;11.73;;;7.47;;
35578;SDS011;21687;48.900;9.188;2023-07-02T07:39:25;12.83;;;8.47;;
35578;SDS011;21687;48.900;9.188;2023-07-02T07:41:52;14.43;;;8.43;;
35578;SDS011;21687;48.900;9.188;2023-07-02T07:44:18;14.33;;;8.67;;
35578;SDS011;21687;48.900;9.188;2023-07-02T07:46:44;13.47;;;7.70;;
35578;SDS011;21687;48.900;9.188;2023-07-02T07:49:12;15.57;;;7.80;;
35578;SDS011;21687;48.900;9.188;2023-07-02T07:51:39;12.03;;;7.97;;
35578;SDS011;21687;48.900;9.188;2023-07-02T07:54:05;11.13;;;7.90;;
35578;SDS011;21687;48.900;9.188;2023-07-02T07:56:31;15.00;;;8.90;;
35578;SDS011;21687;48.900;9.188;2023-07-02T07:58:57;11.30;;;8.30;;
35578;SDS011;21687;48.900;9.188;2023-07-02T08:01:25;14.77;;;8.60;;
35578;SDS011;21687;48.900;9.188;2023-07-02T08:03:52;18.13;;;9.23;;
35578;SDS011;21687;48.900;9.188;2023-07-02T08:06:18;14.17;;;9.67;;
35578;SDS011;21687;48.900;9.188;2023-07-02T08:08:45;14.70;;;9.37;;
35578;SDS011;21687;48.900;9.188;2023-07-02T08:11:11;15.60;;;8.93;;
35578;SDS011;21687;48.900;9.188;2023-07-02T08:13:37;15.10;;;10.03;;
35578;SDS011;21687;48.900;9.188;2023-07-02T08:16:04;14.87;;;10.37;;
35578;SDS011;21687;48.900;9.188;2023-07-02T08:18:30;19.23;;;10.53;;
35578;SDS011;21687;48.900;9.188;2023-07-02T08:20:57;15.33;;;10.03;;
35578;SDS011;21687;48.900;9.188;2023-07-02T08:23:23;15.20;;;10.60;;
35578;SDS011;21687;48.900;9.188;2023-07-02T08:25:49;16.70;;;10.73;;
35578;SDS011;21687;48.900;9.188;2023-07-02T08:28:15;19.30;;;11.23;;
35578;SDS011;21687;48.900;9.188;2023-07-02T08:30:42;17.90;;;10.77;;
35578;SDS011;21687;48.900;9.188;2023-07-02T08:33:08;17.37;;;10.67;;
35578;SDS011;21687;48.900;9.188;2023-07-02T08:35:34;16.50;;;10.33;;
35578;SDS011;21687;48.900;9.188;2023-07-02T08:38:01;19.60;;;10.73;;
35578;SDS011;21687;48.900;9.188;2023-07-02T08:40:27;15.97;;;10.73;;
35578;SDS011;21687;48.900;9.188;2023-07-02T08:42:54;18.40;;;11.63;;
35578;SDS011;21687;48.900;9.188;2023-07-02T08:45:22;19.17;;;11.60;;
35578;SDS011;21687;48.900;9.188;2023-07-02T08:47:50;18.73;;;11.47;;
35578;SDS011;21687;48.900;9.188;2023-07-02T08:50:21;19.40;;;11.17;;
35578;SDS011;21687;48.900;9.188;2023-07-02T08:52:48;18.57;;;11.53;;
35578;SDS011;21687;48.900;9.188;2023-07-02T08:55:15;14.10;;;10.37;;
35578;SDS011;21687;48.900;9.188;2023-07-02T08:57:47;17.90;;;10.73;;
35578;SDS011;21687;48.900;9.188;2023-07-02T09:00:17;27.70;;;10.87;;
35578;SDS011;21687;48.900;9.188;2023-07-02T09:02:45;16.70;;;11.00;;
35578;SDS011;21687;48.900;9.188;2023-07-02T09:05:12;19.67;;;11.43;;
35578;SDS011;21687;48.900;9.188;2023-07-02T09:07:45;17.37;;;10.50;;
35578;SDS011;21687;48.900;9.188;2023-07-02T09:10:12;20.07;;;11.43;;
35578;SDS011;21687;48.900;9.188;2023-07-02T09:13:03;22.20;;;11.30;;
35578;SDS011;21687;48.900;9.188;2023-07-02T09:18:14;18.20;;;11.40;;
35578;SDS011;21687;48.900;9.188;2023-07-02T09:20:44;17.87;;;11.10;;
35578;SDS011;21687;48.900;9.188;2023-07-02T09:23:12;17.10;;;11.30;;
35578;SDS011;21687;48.900;9.188;2023-07-02T09:25:38;18.77;;;11.20;;
35578;SDS011;21687;48.900;9.188;2023-07-02T09:28:13;16.53;;;11.30;;
35578;SDS011;21687;48.900;9.188;2023-07-02T09:30:53;18.10;;;12.30;;
35578;SDS011;21687;48.900;9.188;2023-07-02T09:33:27;21.30;;;12.47;;
35578;SDS011;21687;48.900;9.188;2023-07-02T09:35:54;22.20;;;12.27;;
35578;SDS011;21687;48.900;9.188;2023-07-02T09:38:20;22.63;;;13.47;;
35578;SDS011;21687;48.900;9.188;2023-07-02T09:40:48;22.90;;;12.67;;
35578;SDS011;21687;48.900;9.188;2023-07-02T09:43:16;19.53;;;13.13;;
35578;SDS011;21687;48.900;9.188;2023-07-02T09:45:44;18.30;;;12.30;;
35578;SDS011;21687;48.900;9.188;2023-07-02T09:48:15;17.47;;;12.20;;
35578;SDS011;21687;48.900;9.188;2023-07-02T09:50:43;21.03;;;13.50;;
35578;SDS011;21687;48.900;9.188;2023-07-02T09:53:11;21.30;;;13.67;;
35578;SDS011;21687;48.900;9.188;2023-07-02T09:55:37;25.40;;;13.37;;
35578;SDS011;21687;48.900;9.188;2023-07-02T09:58:06;21.57;;;12.83;;
35578;SDS011;21687;48.900;9.188;2023-07-02T10:00:33;22.27;;;12.90;;
35578;SDS011;21687;48.900;9.188;2023-07-02T10:02:59;20.70;;;12.27;;
35578;SDS011;21687;48.900;9.188;2023-07-02T10:05:29;17.73;;;11.47;;
35578;SDS011;21687;48.900;9.188;2023-07-02T10:07:57;21.43;;;13.03;;
35578;SDS011;21687;48.900;9.188;2023-07-02T10:10:28;19.50;;;12.50;;
35578;SDS011;21687;48.900;9.188;2023-07-02T10:12:55;20.13;;;11.63;;
35578;SDS011;21687;48.900;9.188;2023-07-02T10:15:29;19.93;;;12.40;;
35578;SDS011;21687;48.900;9.188;2023-07-02T10:17:57;21.50;;;12.47;;
35578;SDS011;21687;48.900;9.188;2023-07-02T10:20:39;18.37;;;12.30;;
35578;SDS011;21687;48.900;9.188;2023-07-02T10:23:09;17.93;;;12.40;;
35578;SDS011;21687;48.900;9.188;2023-07-02T10:25:36;20.33;;;12.77;;
35578;SDS011;21687;48.900;9.188;2023-07-02T10:28:14;18.00;;;11.80;;
35578;SDS011;21687;48.900;9.188;2023-07-02T10:30:42;23.77;;;14.03;;
35578;SDS011;21687;48.900;9.188;2023-07-02T10:33:10;18.73;;;13.13;;
35578;SDS011;21687;48.900;9.188;2023-07-02T10:35:40;25.07;;;13.30;;
35578;SDS011;21687;48.900;9.188;2023-07-02T10:38:12;19.90;;;12.53;;
35578;SDS011;21687;48.900;9.188;2023-07-02T10:40:41;20.17;;;12.37;;
35578;SDS011;21687;48.900;9.188;2023-07-02T10:43:08;21.33;;;12.27;;
35578;SDS011;21687;48.900;9.188;2023-07-02T10:45:35;21.63;;;12.40;;
35578;SDS011;21687;48.900;9.188;2023-07-02T10:48:13;18.57;;;11.40;;
35578;SDS011;21687;48.900;9.188;2023-07-02T10:50:40;18.03;;;12.07;;
35578;SDS011;21687;48.900;9.188;2023-07-02T10:53:06;16.03;;;12.50;;
35578;SDS011;21687;48.900;9.188;2023-07-02T10:55:41;17.93;;;11.30;;
35578;SDS011;21687;48.900;9.188;2023-07-02T10:58:09;21.67;;;12.20;;
35578;SDS011;21687;48.900;9.188;2023-07-02T11:00:46;20.50;;;12.27;;
35578;SDS011;21687;48.900;9.188;2023-07-02T11:03:20;18.23;;;12.60;;
35578;SDS011;21687;48.900;9.188;2023-07-02T11:05:51;17.53;;;12.03;;
35578;SDS011;21687;48.900;9.188;2023-07-02T11:08:18;19.27;;;12.70;;
35578;SDS011;21687;48.900;9.188;2023-07-02T11:10:46;20.27;;;12.70;;
35578;SDS011;21687;48.900;9.188;2023-07-02T11:13:13;22.73;;;12.33;;
35578;SDS011;21687;48.900;9.188;2023-07-02T11:15:40;19.20;;;11.37;;
35578;SDS011;21687;48.900;9.188;2023-07-02T11:18:17;18.07;;;11.77;;
35578;SDS011;21687;48.900;9.188;2023-07-02T11:20:47;20.20;;;12.73;;
35578;SDS011;21687;48.900;9.188;2023-07-02T11:23:17;17.87;;;12.57;;
35578;SDS011;21687;48.900;9.188;2023-07-02T11:25:53;21.50;;;12.03;;
35578;SDS011;21687;48.900;9.188;2023-07-02T11:28:24;20.03;;;11.73;;
35578;SDS011;21687;48.900;9.188;2023-07-02T11:30:50;19.80;;;12.80;;
35578;SDS011;21687;48.900;9.188;2023-07-02T11:33:17;23.37;;;12.97;;
35578;SDS011;21687;48.900;9.188;2023-07-02T11:35:45;19.83;;;13.07;;
35578;SDS011;21687;48.900;9.188;2023-07-02T11:38:11;22.13;;;12.93;;
35578;SDS011;21687;48.900;9.188;2023-07-02T11:40:38;16.63;;;12.03;;
35578;SDS011;21687;48.900;9.188;2023-07-02T11:43:05;18.03;;;12.20;;
35578;SDS011;21687;48.900;9.188;2023-07-02T11:45:31;18.27;;;12.70;;
35578;SDS011;21687;48.900;9.188;2023-07-02T11:47:58;20.17;;;12.30;;
35578;SDS011;21687;48.900;9.188;2023-07-02T11:50:24;20.50;;;12.23;;
35578;SDS011;21687;48.900;9.188;2023-07-02T11:52:51;18.17;;;11.70;;
35578;SDS011;21687;48.900;9.188;2023-07-02T11:55:17;17.30;;;11.30;;
35578;SDS011;21687;48.900;9.188;2023-07-02T11:57:43;15.57;;;11.40;;
35578;SDS011;21687;48.900;9.188;2023-07-02T12:00:12;18.27;;;11.83;;
35578;SDS011;21687;48.900;9.188;2023-07-02T12:02:38;22.73;;;13.10;;
35578;SDS011;21687;48.900;9.188;2023-07-02T12:05:05;19.30;;;13.20;;
35578;SDS011;21687;48.900;9.188;2023-07-02T12:07:33;18.43;;;11.80;;
35578;SDS011;21687;48.900;9.188;2023-07-02T12:10:00;14.53;;;11.07;;
35578;SDS011;21687;48.900;9.188;2023-07-02T12:12:26;19.60;;;11.80;;
35578;SDS011;21687;48.900;9.188;2023-07-02T12:14:53;16.60;;;11.43;;
35578;SDS011;21687;48.900;9.188;2023-07-02T12:17:19;17.63;;;11.50;;
35578;SDS011;21687;48.900;9.188;2023-07-02T12:19:45;19.33;;;12.37;;
35578;SDS011;21687;48.900;9.188;2023-07-02T12:22:12;18.90;;;12.17;;
35578;SDS011;21687;48.900;9.188;2023-07-02T12:24:41;16.97;;;11.30;;
35578;SDS011;21687;48.900;9.188;2023-07-02T12:27:08;18.87;;;11.40;;
35578;SDS011;21687;48.900;9.188;2023-07-02T12:29:35;17.37;;;12.17;;
35578;SDS011;21687;48.900;9.188;2023-07-02T12:32:03;17.57;;;12.43;;
35578;SDS011;21687;48.900;9.188;2023-07-02T12:34:31;16.17;;;11.63;;
35578;SDS011;21687;48.900;9.188;2023-07-02T12:36:57;15.47;;;11.60;;
35578;SDS011;21687;48.900;9.188;2023-07-02T12:39:24;21.07;;;12.33;;
35578;SDS011;21687;48.900;9.188;2023-07-02T12:41:50;20.40;;;11.93;;
35578;SDS011;21687;48.900;9.188;2023-07-02T12:44:16;18.67;;;11.97;;
35578;SDS011;21687;48.900;9.188;2023-07-02T12:46:43;18.67;;;12.00;;
35578;SDS011;21687;48.900;9.188;2023-07-02T12:49:09;17.63;;;12.00;;
35578;SDS011;21687;48.900;9.188;2023-07-02T12:51:36;16.77;;;12.07;;
35578;SDS011;21687;48.900;9.188;2023-07-02T12:54:02;17.67;;;11.57;;
35578;SDS011;21687;48.900;9.188;2023-07-02T12:56:29;16.07;;;11.43;;
35578;SDS011;21687;48.900;9.188;2023-07-02T12:58:55;17.67;;;11.77;;
35578;SDS011;21687;48.900;9.188;2023-07-02T13:01:21;16.77;;;11.73;;
35578;SDS011;21687;48.900;9.188;2023-07-02T13:03:49;18.13;;;11.53;;
35578;SDS011;21687;48.900;9.188;2023-07-02T13:06:15;15.93;;;11.03;;
35578;SDS011;21687;48.900;9.188;2023-07-02T13:08:41;19.00;;;11.90;;
35578;SDS011;21687;48.900;9.188;2023-07-02T13:11:08;16.33;;;11.80;;
35578;SDS011;21687;48.900;9.188;2023-07-02T13:13:35;14.83;;;11.80;;
35578;SDS011;21687;48.900;9.188;2023-07-02T13:16:01;16.47;;;11.83;;
35578;SDS011;21687;48.900;9.188;2023-07-02T13:18:28;18.10;;;11.67;;
35578;SDS011;21687;48.900;9.188;2023-07-02T13:20:55;17.47;;;11.77;;
35578;SDS011;21687;48.900;9.188;2023-07-02T13:23:21;19.73;;;11.13;;
35578;SDS011;21687;48.900;9.188;2023-07-02T13:25:47;17.23;;;11.70;;
35578;SDS011;21687;48.900;9.188;2023-07-02T13:28:14;17.60;;;12.13;;
35578;SDS011;21687;48.900;9.188;2023-07-02T13:30:41;17.00;;;10.80;;
35578;SDS011;21687;48.900;9.188;2023-07-02T13:33:08;18.20;;;11.77;;
35578;SDS011;21687;48.900;9.188;2023-07-02T13:35:34;19.80;;;12.50;;
35578;SDS011;21687;48.900;9.188;2023-07-02T13:38:02;16.40;;;11.20;;
35578;SDS011;21687;48.900;9.188;2023-07-02T13:40:30;15.83;;;11.83;;
35578;SDS011;21687;48.900;9.188;2023-07-02T13:42:56;15.20;;;11.47;;
35578;SDS011;21687;48.900;9.188;2023-07-02T13:45:22;14.67;;;11.20;;
35578;SDS011;21687;48.900;9.188;2023-07-02T13:47:49;15.63;;;11.33;;
35578;SDS011;21687;48.900;9.188;2023-07-02T13:50:15;18.23;;;11.30;;
35578;SDS011;21687;48.900;9.188;2023-07-02T13:52:41;15.40;;;11.80;;
35578;SDS011;21687;48.900;9.188;2023-07-02T13:55:08;15.57;;;11.50;;
35578;SDS011;21687;48.900;9.188;2023-07-02T13:57:34;14.97;;;10.60;;
35578;SDS011;21687;48.900;9.188;2023-07-02T14:00:01;17.40;;;10.63;;
35578;SDS011;21687;48.900;9.188;2023-07-02T14:02:29;17.57;;;11.87;;
35578;SDS011;21687;48.900;9.188;2023-07-02T14:04:59;15.37;;;11.33;;
35578;SDS011;21687;48.900;9.188;2023-07-02T14:07:26;17.67;;;11.13;;
35578;SDS011;21687;48.900;9.188;2023-07-02T14:09:52;15.67;;;11.43;;
35578;SDS011;21687;48.900;9.188;2023-07-02T14:12:20;16.03;;;10.93;;
35578;SDS011;21687;48.900;9.188;2023-07-02T14:14:47;20.67;;;11.73;;
35578;SDS011;21687;48.900;9.188;2023-07-02T14:17:13;15.67;;;11.93;;
35578;SDS011;21687;48.900;9.188;2023-07-02T14:19:39;16.57;;;11.50;;
35578;SDS011;21687;48.900;9.188;2023-07-02T14:22:06;15.63;;;10.67;;
35578;SDS011;21687;48.900;9.188;2023-07-02T14:24:33;14.30;;;10.93;;
35578;SDS011;21687;48.900;9.188;2023-07-02T14:27:00;17.30;;;10.97;;
35578;SDS011;21687;48.900;9.188;2023-07-02T14:29:26;16.63;;;11.17;;
35578;SDS011;21687;48.900;9.188;2023-07-02T14:31:52;18.53;;;11.60;;
35578;SDS011;21687;48.900;9.188;2023-07-02T14:34:19;16.27;;;10.73;;
35578;SDS011;21687;48.900;9.188;2023-07-02T14:36:46;15.47;;;10.97;;
35578;SDS011;21687;48.900;9.188;2023-07-02T14:39:12;15.70;;;11.37;;
35578;SDS011;21687;48.900;9.188;2023-07-02T14:41:38;19.03;;;11.93;;
35578;SDS011;21687;48.900;9.188;2023-07-02T14:44:05;18.60;;;11.67;;